createdAt,value
2022-11-08T00:00:11.763Z,1.799
2022-11-08T00:01:09.900Z,1.700
2022-11-08T00:02:10.880Z,1.600
2022-11-08T00:03:10.264Z,1.799
2022-11-08T00:04:10.160Z,1.600
2022-11-08T00:05:10.443Z,1.799
2022-11-08T00:06:10.407Z,1.5
2022-11-08T00:08:10.063Z,1.700
2022-11-08T00:09:10.724Z,1.5
2022-11-08T00:10:10.855Z,1.600
2022-11-08T00:11:10.686Z,1.399
2022-11-08T00:12:10.585Z,1.600
2022-11-08T00:14:10.184Z,2
2022-11-08T00:15:10.269Z,1.600
2022-11-08T00:16:09.918Z,1.399
2022-11-08T00:17:11.029Z,1.700
2022-11-08T00:18:10.231Z,1.600
2022-11-08T00:19:10.899Z,1.799
2022-11-08T00:20:11.026Z,1.899
2022-11-08T00:21:11.032Z,1.799
2022-11-08T00:22:10.258Z,1.700
2022-11-08T00:23:10.744Z,1.600
2022-11-08T00:24:10.996Z,1.899
2022-11-08T00:25:10.870Z,1.700
2022-11-08T00:26:11.094Z,1.600
2022-11-08T00:27:10.174Z,1.700
2022-11-08T00:28:10.083Z,1.600
2022-11-08T00:29:10.630Z,2
2022-11-08T00:30:10.549Z,1.899
2022-11-08T00:31:10.514Z,1.600
2022-11-08T00:32:10.514Z,2
2022-11-08T00:34:09.810Z,1.700
2022-11-08T00:36:10.584Z,1.899
2022-11-08T00:37:10.696Z,2
2022-11-08T00:38:10.299Z,2.099
2022-11-08T00:39:10.788Z,1.799
2022-11-08T00:40:10.756Z,1.600
2022-11-08T00:41:10.704Z,1.899
2022-11-08T00:42:10.261Z,1.700
2022-11-08T00:43:10.000Z,2
2022-11-08T00:44:10.639Z,1.899
2022-11-08T00:45:10.745Z,1.799
2022-11-08T00:46:10.546Z,1.700
2022-11-08T00:48:10.143Z,1.799
2022-11-08T00:50:10.543Z,1.600
2022-11-08T00:52:10.061Z,1.399
2022-11-08T00:53:10.857Z,1.700
2022-11-08T00:54:10.595Z,1.899
2022-11-08T00:55:10.382Z,1.5
2022-11-08T00:56:09.985Z,1.899
2022-11-08T00:57:10.646Z,1.600
2022-11-08T00:58:10.622Z,2
2022-11-08T00:59:10.799Z,1.799
2022-11-08T01:00:11.035Z,1.600
2022-11-08T01:01:11.846Z,1.700
2022-11-08T01:03:10.755Z,1.5
2022-11-08T01:04:10.369Z,1.799
2022-11-08T01:05:10.354Z,1.600
2022-11-08T01:06:10.357Z,1.799
2022-11-08T01:07:10.161Z,1.600
2022-11-08T01:08:10.186Z,1.700
2022-11-08T01:09:10.758Z,1.600
2022-11-08T01:10:10.279Z,1.700
2022-11-08T01:12:10.113Z,1.899
2022-11-08T01:13:09.877Z,1.700
2022-11-08T01:14:10.741Z,1.600
2022-11-08T01:15:10.755Z,1.700
2022-11-08T01:16:10.648Z,2.299
2022-11-08T01:17:10.349Z,2
2022-11-08T01:18:10.237Z,1.5
2022-11-08T01:19:10.672Z,1.600
2022-11-08T01:20:10.503Z,1.899
2022-11-08T01:21:10.247Z,1.600
2022-11-08T01:22:09.963Z,1.899
2022-11-08T01:24:10.651Z,1.600
2022-11-08T01:26:10.032Z,1.799
2022-11-08T01:27:09.998Z,1.700
2022-11-08T01:28:11.068Z,2.099
2022-11-08T01:29:10.644Z,1.700
2022-11-08T01:30:10.568Z,1.600
2022-11-08T01:31:10.449Z,1.899
2022-11-08T01:32:10.174Z,2.099
2022-11-08T01:33:09.967Z,1.799
2022-11-08T01:34:10.863Z,1.700
2022-11-08T01:35:10.593Z,1.799
2022-11-08T01:36:10.539Z,1.700
2022-11-08T01:37:10.025Z,2
2022-11-08T01:40:09.772Z,1.899
2022-11-08T01:42:10.417Z,2
2022-11-08T01:44:10.137Z,1.799
2022-11-08T01:45:10.004Z,1.700
2022-11-08T01:46:10.813Z,2.700
2022-11-08T01:47:10.588Z,2.099
2022-11-08T01:48:10.160Z,2
2022-11-08T01:49:10.632Z,1.899
2022-11-08T01:50:10.086Z,2.099
2022-11-08T01:51:10.787Z,2.299
2022-11-08T01:52:10.305Z,2
2022-11-08T01:53:09.839Z,1.799
2022-11-08T01:54:10.654Z,1.899
2022-11-08T01:56:10.599Z,1.700
2022-11-08T01:57:10.549Z,1.899
2022-11-08T01:58:10.473Z,2
2022-11-08T01:59:09.749Z,1.799
2022-11-08T02:00:11.189Z,1.899
2022-11-08T02:01:10.531Z,1.799
2022-11-08T02:02:10.794Z,1.899
2022-11-08T02:04:10.181Z,1.700
2022-11-08T02:05:10.381Z,2
2022-11-08T02:07:10.070Z,1.899
2022-11-08T02:08:11.045Z,1.799
2022-11-08T02:09:10.100Z,2.099
2022-11-08T02:10:10.000Z,1.700
2022-11-08T02:11:09.910Z,2.099
2022-11-08T02:15:10.889Z,2.299
2022-11-08T02:16:10.798Z,2
2022-11-08T02:18:10.630Z,2.200
2022-11-08T02:19:09.990Z,2.400
2022-11-08T02:20:11.089Z,1.899
2022-11-08T02:21:10.586Z,2
2022-11-08T02:22:10.508Z,1.799
2022-11-08T02:24:10.554Z,2
2022-11-08T02:25:10.663Z,1.799
2022-11-08T02:26:10.337Z,1.899
2022-11-08T02:27:10.126Z,2.200
2022-11-08T02:28:09.906Z,2.099
2022-11-08T02:29:10.093Z,1.799
2022-11-08T02:30:10.404Z,2.200
2022-11-08T02:31:10.161Z,1.899
2022-11-08T02:32:09.913Z,2.099
2022-11-08T02:33:10.937Z,2
2022-11-08T02:34:10.571Z,2.200
2022-11-08T02:35:10.465Z,1.799
2022-11-08T02:36:10.165Z,1.700
2022-11-08T02:37:10.304Z,2
2022-11-08T02:38:10.095Z,1.799
2022-11-08T02:39:10.439Z,1.700
2022-11-08T02:40:10.281Z,2.299
2022-11-08T02:41:10.112Z,1.899
2022-11-08T02:43:11.007Z,2.099
2022-11-08T02:44:10.724Z,1.899
2022-11-08T02:45:10.691Z,2
2022-11-08T02:46:09.946Z,1.899
2022-11-08T02:47:10.992Z,2.099
2022-11-08T02:48:10.610Z,1.899
2022-11-08T02:49:09.990Z,1.600
2022-11-08T02:51:10.925Z,1.899
2022-11-08T02:52:10.608Z,1.799
2022-11-08T02:53:09.966Z,2.099
2022-11-08T02:54:10.721Z,1.799
2022-11-08T02:55:10.681Z,1.600
2022-11-08T02:56:10.237Z,1.799
2022-11-08T02:58:10.731Z,2
2022-11-08T02:59:10.096Z,2.099
2022-11-08T03:00:11.538Z,2
2022-11-08T03:02:10.508Z,2.200
2022-11-08T03:03:10.757Z,2
2022-11-08T03:04:10.373Z,1.899
2022-11-08T03:05:10.233Z,2
2022-11-08T03:07:10.544Z,2.099
2022-11-08T03:08:10.146Z,1.899
2022-11-08T03:09:10.821Z,2
2022-11-08T03:10:10.497Z,2.299
2022-11-08T03:11:10.260Z,1.899
2022-11-08T03:12:10.207Z,2.200
2022-11-08T03:13:10.936Z,2.099
2022-11-08T03:14:10.640Z,2
2022-11-08T03:15:10.389Z,1.799
2022-11-08T03:17:10.702Z,2.099
2022-11-08T03:18:10.552Z,2.200
2022-11-08T03:19:10.831Z,1.799
2022-11-08T03:20:10.287Z,1.899
2022-11-08T03:22:10.843Z,1.799
2022-11-08T03:23:10.379Z,1.899
2022-11-08T03:26:10.409Z,1.799
2022-11-08T03:28:09.802Z,2
2022-11-08T03:30:10.729Z,2.200
2022-11-08T03:31:10.471Z,1.799
2022-11-08T03:32:10.351Z,2
2022-11-08T03:33:09.794Z,2.099
2022-11-08T03:34:10.383Z,1.899
2022-11-08T03:35:09.936Z,2
2022-11-08T03:36:10.586Z,2.099
2022-11-08T03:37:10.042Z,1.5
2022-11-08T03:38:10.526Z,1.799
2022-11-08T03:39:10.125Z,1.899
2022-11-08T03:40:11.002Z,1.799
2022-11-08T03:41:10.838Z,1.899
2022-11-08T03:42:10.552Z,2.200
2022-11-08T03:43:10.053Z,1.799
2022-11-08T03:44:10.121Z,1.700
2022-11-08T03:45:11.022Z,2
2022-11-08T03:47:10.166Z,1.899
2022-11-08T03:49:10.166Z,2.200
2022-11-08T03:51:10.216Z,2.099
2022-11-08T03:53:10.765Z,2.200
2022-11-08T03:54:10.735Z,2.099
2022-11-08T03:59:10.114Z,2.299
2022-11-08T04:00:11.510Z,2.200
2022-11-08T04:02:10.395Z,2.099
2022-11-08T04:03:10.450Z,2.5
2022-11-08T04:04:10.370Z,2
2022-11-08T04:05:10.118Z,2.200
2022-11-08T04:06:10.170Z,2.299
2022-11-08T04:07:10.250Z,2.200
2022-11-08T04:08:10.137Z,2.400
2022-11-08T04:09:10.698Z,2.200
2022-11-08T04:10:10.806Z,2
2022-11-08T04:11:10.847Z,2.299
2022-11-08T04:12:11.023Z,2.200
2022-11-08T04:14:15.074Z,2.099
2022-11-08T04:15:11.389Z,2.200
2022-11-08T04:17:11.066Z,2.5
2022-11-08T04:18:10.794Z,2.200
2022-11-08T04:19:10.369Z,2.400
2022-11-08T04:20:10.483Z,2.299
2022-11-08T04:21:10.637Z,2
2022-11-08T04:22:10.453Z,2.400
2022-11-08T04:23:10.464Z,2.099
2022-11-08T04:24:10.555Z,2.299
2022-11-08T04:25:10.669Z,2.099
2022-11-08T04:26:10.686Z,2.400
2022-11-08T04:28:10.663Z,2.099
2022-11-08T04:29:10.959Z,1.899
2022-11-08T04:30:11.004Z,2.099
2022-11-08T04:31:10.928Z,2.299
2022-11-08T04:32:11.045Z,1.899
2022-11-08T04:34:09.971Z,2.099
2022-11-08T04:35:10.778Z,2
2022-11-08T04:36:10.802Z,2.099
2022-11-08T04:37:10.978Z,2.200
2022-11-08T04:38:10.906Z,2.099
2022-11-08T04:39:10.245Z,2.5
2022-11-08T04:40:10.239Z,2.299
2022-11-08T04:41:10.136Z,2.099
2022-11-08T04:43:10.294Z,2.299
2022-11-08T04:45:10.682Z,2.200
2022-11-08T04:46:10.503Z,2.400
2022-11-08T04:48:10.005Z,2
2022-11-08T04:49:10.344Z,1.799
2022-11-08T04:50:10.309Z,1.899
2022-11-08T04:51:10.300Z,2.299
2022-11-08T04:54:10.700Z,2.400
2022-11-08T04:55:10.523Z,2.299
2022-11-08T04:56:10.433Z,2
2022-11-08T04:57:10.285Z,2.200
2022-11-08T04:58:10.042Z,2.299
2022-11-08T05:00:10.768Z,2.200
2022-11-08T05:01:10.433Z,2.5
2022-11-08T05:02:10.625Z,2.400
2022-11-08T05:03:11.047Z,2.599
2022-11-08T05:04:10.949Z,2.400
2022-11-08T05:05:11.103Z,2.5
2022-11-08T05:06:10.062Z,2.299
2022-11-08T05:07:09.970Z,2.400
2022-11-08T05:08:11.106Z,2.299
2022-11-08T05:09:10.494Z,2.400
2022-11-08T05:11:10.661Z,2.200
2022-11-08T05:12:10.600Z,2.400
2022-11-08T05:13:10.349Z,2.299
2022-11-08T05:15:10.755Z,2.200
2022-11-08T05:16:10.755Z,2.5
2022-11-08T05:17:10.752Z,2.299
2022-11-08T05:18:10.481Z,2.799
2022-11-08T05:19:13.190Z,2.5
2022-11-08T05:20:10.474Z,2.299
2022-11-08T05:21:10.339Z,2.200
2022-11-08T05:22:10.328Z,2.099
2022-11-08T05:23:10.492Z,2.799
2022-11-08T05:24:10.447Z,2.5
2022-11-08T05:25:10.699Z,2.299
2022-11-08T05:27:10.712Z,2.400
2022-11-08T05:28:10.515Z,2.099
2022-11-08T05:29:10.310Z,2.599
2022-11-08T05:30:10.589Z,2.099
2022-11-08T05:31:10.504Z,2
2022-11-08T05:32:10.188Z,2.099
2022-11-08T05:33:10.261Z,2
2022-11-08T05:34:10.199Z,2.299
2022-11-08T05:35:10.401Z,2
2022-11-08T05:36:10.687Z,2.099
2022-11-08T05:37:10.814Z,2.700
2022-11-08T05:38:10.732Z,2.5
2022-11-08T05:39:10.075Z,2.400
2022-11-08T05:40:10.261Z,2.099
2022-11-08T05:41:10.180Z,2.200
2022-11-08T05:43:10.264Z,2.299
2022-11-08T05:45:10.870Z,2.200
2022-11-08T05:47:10.145Z,2.200
2022-11-08T05:48:10.052Z,2
2022-11-08T05:49:10.469Z,2.299
2022-11-08T05:51:09.867Z,2.200
2022-11-08T05:52:10.787Z,2.099
2022-11-08T05:53:10.746Z,2.200
2022-11-08T05:54:10.239Z,2
2022-11-08T05:55:10.262Z,2.200
2022-11-08T05:57:10.866Z,2.099
2022-11-08T05:58:10.002Z,1.899
2022-11-08T06:00:11.451Z,2.200
2022-11-08T06:01:10.760Z,2
2022-11-08T06:04:10.763Z,2.099
2022-11-08T06:05:10.577Z,1.899
2022-11-08T06:06:10.342Z,1.799
2022-11-08T06:07:10.641Z,1.899
2022-11-08T06:08:11.081Z,1.700
2022-11-08T06:09:10.665Z,1.799
2022-11-08T06:10:10.759Z,1.899
2022-11-08T06:11:11.078Z,2.099
2022-11-08T06:12:10.609Z,2.299
2022-11-08T06:13:10.604Z,2.099
2022-11-08T06:14:10.566Z,2.200
2022-11-08T06:16:10.875Z,2.099
2022-11-08T06:17:10.834Z,2.299
2022-11-08T06:18:10.659Z,2.5
2022-11-08T06:19:10.528Z,2.200
2022-11-08T06:20:10.687Z,2.5
2022-11-08T06:21:10.667Z,2.599
2022-11-08T06:23:10.043Z,2.5
2022-11-08T06:24:10.876Z,2.700
2022-11-08T06:25:10.372Z,2.599
2022-11-08T06:27:10.352Z,3
2022-11-08T06:28:10.372Z,2.400
2022-11-08T06:29:10.424Z,2.599
2022-11-08T06:30:10.723Z,2.700
2022-11-08T06:31:10.734Z,2.799
2022-11-08T06:33:10.754Z,2.5
2022-11-08T06:34:10.595Z,2.700
2022-11-08T06:35:10.496Z,2.400
2022-11-08T06:37:10.127Z,2.599
2022-11-08T06:39:10.114Z,2.5
2022-11-08T06:40:10.219Z,3
2022-11-08T06:41:10.053Z,2.799
2022-11-08T06:42:09.938Z,2.700
2022-11-08T06:43:14.973Z,2.799
2022-11-08T06:44:10.225Z,3.099
2022-11-08T06:45:10.798Z,2.700
2022-11-08T06:47:10.728Z,3
2022-11-08T06:48:10.805Z,2.799
2022-11-08T06:49:11.134Z,3
2022-11-08T06:50:10.654Z,3.5
2022-11-08T06:51:11.301Z,3.700
2022-11-08T06:52:10.719Z,3.5
2022-11-08T06:53:11.325Z,3.700
2022-11-08T06:54:15.458Z,3.299
2022-11-08T06:55:11.229Z,3.5
2022-11-08T06:56:10.252Z,3.299
2022-11-08T06:58:10.401Z,3.700
2022-11-08T06:59:10.328Z,3.200
2022-11-08T07:00:10.852Z,3.5
2022-11-08T07:01:24.631Z,2.599
2022-11-08T07:02:11.110Z,2.900
2022-11-08T07:03:10.670Z,3.200
2022-11-08T07:04:10.198Z,3.400
2022-11-08T07:05:10.377Z,3.200
2022-11-08T07:06:10.292Z,2.799
2022-11-08T07:07:10.737Z,3.200
2022-11-08T07:08:10.869Z,2.700
2022-11-08T07:09:11.190Z,3
2022-11-08T07:10:09.916Z,2.799
2022-11-08T07:11:11.007Z,2.400
2022-11-08T07:13:10.873Z,2.900
2022-11-08T07:14:10.880Z,2.700
2022-11-08T07:15:29.245Z,2.5
2022-11-08T07:18:10.267Z,2.400
2022-11-08T07:19:10.325Z,2.5
2022-11-08T07:20:10.509Z,2
2022-11-08T07:21:10.446Z,1.799
2022-11-08T07:22:10.561Z,1.700
2022-11-08T07:23:10.517Z,1.600
2022-11-08T07:25:10.898Z,1.899
2022-11-08T07:26:10.063Z,1.799
2022-11-08T07:27:10.535Z,1.700
2022-11-08T07:28:12.140Z,1.799
2022-11-08T07:30:11.086Z,1.5
2022-11-08T07:31:10.307Z,1.799
2022-11-08T07:32:10.202Z,1.600
2022-11-08T07:33:10.612Z,1.5
2022-11-08T07:34:10.444Z,1.899
2022-11-08T07:35:11.046Z,1.799
2022-11-08T07:38:10.434Z,2
2022-11-08T07:39:10.689Z,1.799
2022-11-08T07:43:12.600Z,1.700
2022-11-08T07:44:10.033Z,1.799
2022-11-08T07:47:10.236Z,1.700
2022-11-08T07:50:11.000Z,1.600
2022-11-08T07:51:10.258Z,1.700
2022-11-08T07:52:10.268Z,1.600
2022-11-08T07:53:10.301Z,1.700
2022-11-08T07:54:10.944Z,1.5
2022-11-08T07:55:11.290Z,1.700
2022-11-08T07:56:10.543Z,1.899
2022-11-08T07:57:11.972Z,1.700
2022-11-08T07:58:10.166Z,1.799
2022-11-08T07:59:10.460Z,1.700
2022-11-08T08:00:11.390Z,1.5
2022-11-08T08:01:10.879Z,1.799
2022-11-08T08:04:10.725Z,1.700
2022-11-08T08:05:11.065Z,1.600
2022-11-08T08:06:10.644Z,1.799
2022-11-08T08:07:11.008Z,1.600
2022-11-08T08:11:11.041Z,1.399
2022-11-08T08:12:10.146Z,1.5
2022-11-08T08:13:10.283Z,1.799
2022-11-08T08:14:11.270Z,1.600
2022-11-08T08:15:10.751Z,1.399
2022-11-08T08:17:11.123Z,1.600
2022-11-08T08:19:11.104Z,1.700
2022-11-08T08:20:10.331Z,1.899
2022-11-08T08:21:10.660Z,1.600
2022-11-08T08:22:10.552Z,1.700
2022-11-08T08:24:10.828Z,1.799
2022-11-08T08:25:11.159Z,1.399
2022-11-08T08:26:10.445Z,1.700
2022-11-08T08:27:10.828Z,1.399
2022-11-08T08:28:10.969Z,1.600
2022-11-08T08:29:10.395Z,1.700
2022-11-08T08:32:10.746Z,1.600
2022-11-08T08:33:29.105Z,1.399
2022-11-08T08:34:10.295Z,1.600
2022-11-08T08:35:10.392Z,1.5
2022-11-08T08:36:10.285Z,1.799
2022-11-08T08:37:10.460Z,1.600
2022-11-08T08:38:10.441Z,1.700
2022-11-08T08:39:10.703Z,1.5
2022-11-08T08:40:10.774Z,1.600
2022-11-08T08:42:10.564Z,1.899
2022-11-08T08:43:10.873Z,1.5
2022-11-08T08:44:10.463Z,1.600
2022-11-08T08:45:14.715Z,1.700
2022-11-08T08:46:10.995Z,1.600
2022-11-08T08:48:10.492Z,1.399
2022-11-08T08:49:10.873Z,1.600
2022-11-08T08:50:11.154Z,1.399
2022-11-08T08:51:10.377Z,1.700
2022-11-08T08:53:11.172Z,1.299
2022-11-08T08:54:11.021Z,1.5
2022-11-08T08:56:10.853Z,1.600
2022-11-08T08:57:11.161Z,1.899
2022-11-08T08:58:10.362Z,1.600
2022-11-08T09:01:38.571Z,1.600
2022-11-08T09:02:10.624Z,1.799
2022-11-08T09:03:11.158Z,1.600
2022-11-08T09:04:11.237Z,1.700
2022-11-08T09:05:10.610Z,1.600
2022-11-08T09:06:10.716Z,1.700
2022-11-08T09:08:15.806Z,1.600
2022-11-08T09:09:11.240Z,2
2022-11-08T09:10:10.094Z,1.700
2022-11-08T09:11:10.376Z,1.600
2022-11-08T09:12:11.911Z,1.799
2022-11-08T09:13:10.628Z,1.600
2022-11-08T09:14:10.473Z,1.700
2022-11-08T09:15:10.933Z,1.600
2022-11-08T09:16:11.210Z,2
2022-11-08T09:17:10.412Z,1.700
2022-11-08T09:18:10.811Z,1.799
2022-11-08T09:20:11.016Z,1.600
2022-11-08T09:21:10.077Z,1.5
2022-11-08T09:22:11.129Z,1.600
2022-11-08T09:24:10.116Z,1.799
2022-11-08T09:25:10.387Z,1.700
2022-11-08T09:26:10.747Z,1.600
2022-11-08T09:28:11.097Z,1.799
2022-11-08T09:29:11.006Z,1.600
2022-11-08T09:31:10.453Z,1.700
2022-11-08T09:32:10.497Z,1.600
2022-11-08T09:33:10.545Z,1.700
2022-11-08T09:34:24.252Z,1.600
2022-11-08T09:37:10.571Z,1.5
2022-11-08T09:38:10.599Z,1.600
2022-11-08T09:40:10.902Z,1.700
2022-11-08T09:43:10.873Z,1.399
2022-11-08T09:44:29.200Z,1.799
2022-11-08T09:45:10.342Z,1.5
2022-11-08T09:47:10.624Z,1.700
2022-11-08T09:49:10.760Z,1.5
2022-11-08T09:50:10.847Z,1.799
2022-11-08T09:51:11.309Z,1.700
2022-11-08T09:52:32.961Z,1.600
2022-11-08T09:53:10.468Z,1.799
2022-11-08T09:54:10.164Z,1.600
2022-11-08T09:55:11.131Z,1.799
2022-11-08T09:56:10.390Z,1.600
2022-11-08T09:59:10.088Z,1.700
2022-11-08T10:00:11.463Z,1.5
2022-11-08T10:02:10.421Z,1.700
2022-11-08T10:03:11.350Z,1.600
2022-11-08T10:04:11.084Z,1.899
2022-11-08T10:05:10.522Z,1.5
2022-11-08T10:06:11.990Z,1.899
2022-11-08T10:07:11.142Z,1.700
2022-11-08T10:10:09.720Z,1.5
2022-11-08T10:11:10.695Z,1.600
2022-11-08T10:12:10.830Z,1.799
2022-11-08T10:13:10.840Z,1.399
2022-11-08T10:14:10.595Z,1.700
2022-11-08T10:16:10.664Z,1.799
2022-11-08T10:17:10.961Z,1.600
2022-11-08T10:18:10.233Z,1.5
2022-11-08T10:19:10.685Z,1.600
2022-11-08T10:20:11.273Z,1.899
2022-11-08T10:21:10.859Z,1.600
2022-11-08T10:22:10.407Z,1.5
2022-11-08T10:23:10.675Z,2
2022-11-08T10:24:10.348Z,1.899
2022-11-08T10:25:10.807Z,1.700
2022-11-08T10:26:11.010Z,1.600
2022-11-08T10:28:10.963Z,1.700
2022-11-08T10:29:09.997Z,2
2022-11-08T10:30:10.655Z,1.600
2022-11-08T10:31:11.046Z,1.799
2022-11-08T10:35:10.993Z,1.600
2022-11-08T10:36:10.529Z,1.799
2022-11-08T10:38:11.004Z,1.899
2022-11-08T10:39:10.415Z,1.700
2022-11-08T10:40:11.092Z,1.799
2022-11-08T10:44:10.810Z,1.899
2022-11-08T10:45:11.409Z,1.600
2022-11-08T10:46:10.692Z,1.899
2022-11-08T10:47:11.254Z,1.600
2022-11-08T10:48:10.943Z,1.700
2022-11-08T10:49:10.975Z,1.899
2022-11-08T10:50:11.281Z,2
2022-11-08T10:51:11.083Z,1.600
2022-11-08T10:52:10.417Z,1.899
2022-11-08T10:54:10.842Z,2
2022-11-08T10:55:11.237Z,1.5
2022-11-08T10:56:10.558Z,1.700
2022-11-08T10:57:11.247Z,1.799
2022-11-08T10:58:10.710Z,1.700
2022-11-08T10:59:10.749Z,1.799
2022-11-08T11:00:11.446Z,1.600
2022-11-08T11:01:11.536Z,1.700
2022-11-08T11:02:10.394Z,1.799
2022-11-08T11:04:10.479Z,1.899
2022-11-08T11:05:11.311Z,1.799
2022-11-08T11:06:10.744Z,1.899
2022-11-08T11:08:10.516Z,1.700
2022-11-08T11:09:10.680Z,1.899
2022-11-08T11:10:12.221Z,1.799
2022-11-08T11:12:11.142Z,1.899
2022-11-08T11:13:10.520Z,1.700
2022-11-08T11:15:10.217Z,2
2022-11-08T11:16:10.338Z,2.099
2022-11-08T11:17:10.561Z,1.899
2022-11-08T11:18:11.242Z,2.099
2022-11-08T11:19:10.901Z,1.899
2022-11-08T11:20:11.066Z,2.099
2022-11-08T11:21:10.189Z,1.899
2022-11-08T11:22:10.789Z,1.799
2022-11-08T11:23:11.221Z,1.899
2022-11-08T11:24:10.686Z,1.799
2022-11-08T11:25:10.609Z,2
2022-11-08T11:26:10.836Z,1.899
2022-11-08T11:28:10.397Z,1.799
2022-11-08T11:29:10.465Z,1.899
2022-11-08T11:30:11.881Z,2
2022-11-08T11:31:10.696Z,1.799
2022-11-08T11:32:11.244Z,1.899
2022-11-08T11:35:10.917Z,1.799
2022-11-08T11:38:11.010Z,1.600
2022-11-08T11:39:11.150Z,1.899
2022-11-08T11:40:10.498Z,1.700
2022-11-08T11:41:11.261Z,1.899
2022-11-08T11:42:31.223Z,1.799
2022-11-08T11:43:10.625Z,1.700
2022-11-08T11:44:11.066Z,2.099
2022-11-08T11:45:10.756Z,1.899
2022-11-08T11:46:10.936Z,2
2022-11-08T11:47:11.122Z,1.700
2022-11-08T11:49:10.369Z,1.799
2022-11-08T11:50:10.753Z,1.700
2022-11-08T11:51:11.064Z,1.899
2022-11-08T11:52:10.341Z,1.799
2022-11-08T11:53:10.715Z,1.600
2022-11-08T11:54:11.042Z,1.700
2022-11-08T11:55:10.337Z,1.799
2022-11-08T11:56:10.704Z,1.899
2022-11-08T11:57:10.933Z,1.600
2022-11-08T11:59:11.227Z,1.700
2022-11-08T12:00:10.873Z,1.799
2022-11-08T12:01:14.187Z,1.899
2022-11-08T12:02:10.963Z,1.600
2022-11-08T12:03:10.448Z,1.799
2022-11-08T12:04:10.654Z,1.700
2022-11-08T12:05:10.951Z,1.600
2022-11-08T12:06:11.014Z,1.799
2022-11-08T12:07:11.360Z,1.700
2022-11-08T12:09:10.979Z,1.899
2022-11-08T12:10:11.277Z,1.799
2022-11-08T12:11:10.576Z,1.600
2022-11-08T12:12:10.844Z,1.899
2022-11-08T12:13:11.096Z,1.700
2022-11-08T12:14:11.261Z,1.799
2022-11-08T12:15:10.907Z,1.700
2022-11-08T12:17:10.651Z,1.399
2022-11-08T12:18:11.117Z,1.700
2022-11-08T12:20:10.601Z,1.600
2022-11-08T12:21:10.697Z,1.700
2022-11-08T12:23:11.049Z,1.799
2022-11-08T12:24:11.274Z,1.899
2022-11-08T12:25:10.699Z,1.799
2022-11-08T12:28:10.894Z,1.899
2022-11-08T12:29:10.486Z,1.799
2022-11-08T12:30:10.952Z,1.899
2022-11-08T12:31:11.515Z,1.799
2022-11-08T12:34:10.625Z,1.899
2022-11-08T12:35:11.000Z,1.799
2022-11-08T12:36:10.352Z,1.600
2022-11-08T12:37:10.443Z,1.700
2022-11-08T12:38:11.094Z,1.799
2022-11-08T12:39:11.136Z,1.700
2022-11-08T12:40:10.787Z,1.799
2022-11-08T12:41:11.266Z,1.5
2022-11-08T12:42:10.693Z,1.600
2022-11-08T12:43:11.715Z,1.5
2022-11-08T12:45:10.920Z,1.600
2022-11-08T12:46:10.331Z,1.700
2022-11-08T12:47:10.779Z,1.799
2022-11-08T12:48:10.669Z,1.700
2022-11-08T12:49:10.628Z,1.600
2022-11-08T12:50:11.042Z,1.799
2022-11-08T12:51:10.433Z,1.5
2022-11-08T12:53:11.264Z,1.899
2022-11-08T12:54:10.489Z,1.700
2022-11-08T12:55:10.851Z,1.799
2022-11-08T12:56:11.173Z,1.600
2022-11-08T12:57:10.793Z,1.899
2022-11-08T12:58:11.237Z,1.600
2022-11-08T12:59:11.156Z,1.700
2022-11-08T13:00:11.390Z,1.799
2022-11-08T13:02:10.567Z,1.700
2022-11-08T13:03:11.382Z,1.600
2022-11-08T13:04:10.907Z,1.5
2022-11-08T13:07:10.727Z,1.700
2022-11-08T13:08:11.272Z,1.899
2022-11-08T13:09:11.564Z,1.5
2022-11-08T13:10:12.693Z,1.799
2022-11-08T13:12:10.300Z,1.5
2022-11-08T13:13:10.717Z,1.799
2022-11-08T13:14:10.994Z,1.600
2022-11-08T13:15:10.577Z,1.399
2022-11-08T13:16:10.968Z,1.5
2022-11-08T13:17:10.422Z,1.700
2022-11-08T13:18:10.890Z,1.799
2022-11-08T13:19:11.388Z,1.600
2022-11-08T13:20:10.866Z,1.799
2022-11-08T13:21:10.960Z,1.600
2022-11-08T13:23:11.272Z,1.700
2022-11-08T13:24:42.418Z,1.799
2022-11-08T13:26:11.269Z,1.600
2022-11-08T13:28:11.312Z,1.700
2022-11-08T13:29:11.122Z,1.600
2022-11-08T13:32:10.514Z,1.799
2022-11-08T13:33:11.033Z,1.600
2022-11-08T13:34:10.772Z,1.700
2022-11-08T13:35:11.277Z,1.600
2022-11-08T13:36:10.671Z,1.700
2022-11-08T13:37:10.137Z,1.799
2022-11-08T13:38:10.518Z,1.899
2022-11-08T13:39:10.888Z,1.700
2022-11-08T13:40:11.178Z,1.799
2022-11-08T13:41:10.657Z,1.600
2022-11-08T13:42:10.785Z,1.799
2022-11-08T13:43:11.026Z,1.600
2022-11-08T13:44:10.331Z,1.399
2022-11-08T13:45:10.587Z,1.600
2022-11-08T13:46:11.215Z,1.700
2022-11-08T13:49:10.730Z,1.5
2022-11-08T13:50:11.391Z,1.600
2022-11-08T13:51:10.872Z,1.799
2022-11-08T13:52:10.890Z,1.700
2022-11-08T13:53:11.160Z,1.600
2022-11-08T13:54:15.072Z,1.700
2022-11-08T13:56:15.395Z,1.899
2022-11-08T13:57:10.520Z,1.700
2022-11-08T13:58:10.508Z,1.799
2022-11-08T14:00:16.270Z,1.600
2022-11-08T14:01:10.676Z,1.799
2022-11-08T14:03:10.447Z,1.600
2022-11-08T14:05:11.274Z,1.700
2022-11-08T14:06:10.516Z,2
2022-11-08T14:07:11.037Z,1.600
2022-11-08T14:08:11.161Z,1.700
2022-11-08T14:09:11.096Z,1.799
2022-11-08T14:10:11.205Z,1.700
2022-11-08T14:11:11.444Z,1.799
2022-11-08T14:14:11.108Z,1.399
2022-11-08T14:15:10.846Z,1.600
2022-11-08T14:16:10.103Z,1.700
2022-11-08T14:17:10.958Z,1.5
2022-11-08T14:18:10.789Z,1.799
2022-11-08T14:19:10.072Z,1.700
2022-11-08T14:20:10.251Z,1.600
2022-11-08T14:22:10.654Z,1.899
2022-11-08T14:23:10.949Z,1.600
2022-11-08T14:24:10.862Z,1.799
2022-11-08T14:25:11.112Z,1.700
2022-11-08T14:26:10.350Z,1.799
2022-11-08T14:27:10.540Z,1.600
2022-11-08T14:28:10.586Z,1.700
2022-11-08T14:29:10.681Z,1.5
2022-11-08T14:30:11.196Z,1.700
2022-11-08T14:31:10.738Z,1.5
2022-11-08T14:32:11.281Z,1.799
2022-11-08T14:33:10.304Z,1.700
2022-11-08T14:34:10.948Z,1.600
2022-11-08T14:35:10.189Z,1.799
2022-11-08T14:36:29.537Z,1.700
2022-11-08T14:37:10.469Z,1.299
2022-11-08T14:38:10.368Z,1.799
2022-11-08T14:39:10.816Z,1.700
2022-11-08T14:42:10.520Z,1.600
2022-11-08T14:43:10.648Z,1.5
2022-11-08T14:45:10.803Z,1.600
2022-11-08T14:46:11.039Z,1.899
2022-11-08T14:47:10.452Z,1.700
2022-11-08T14:51:10.824Z,1.799
2022-11-08T14:54:10.450Z,1.700
2022-11-08T14:55:10.749Z,2
2022-11-08T14:57:10.369Z,1.899
2022-11-08T14:58:10.513Z,1.700
2022-11-08T14:59:10.201Z,1.799
2022-11-08T15:01:10.717Z,1.899
2022-11-08T15:02:10.175Z,1.700
2022-11-08T15:03:10.515Z,1.799
2022-11-08T15:04:10.673Z,1.700
2022-11-08T15:06:13.833Z,1.899
2022-11-08T15:07:10.511Z,1.799
2022-11-08T15:08:10.815Z,1.600
2022-11-08T15:09:11.200Z,1.799
2022-11-08T15:10:10.532Z,1.700
2022-11-08T15:11:10.819Z,1.600
2022-11-08T15:12:10.921Z,1.700
2022-11-08T15:13:10.935Z,1.5
2022-11-08T15:14:10.231Z,1.700
2022-11-08T15:15:10.537Z,2
2022-11-08T15:16:10.707Z,1.799
2022-11-08T15:17:10.916Z,1.700
2022-11-08T15:20:10.936Z,1.600
2022-11-08T15:22:10.593Z,1.799
2022-11-08T15:23:10.839Z,1.600
2022-11-08T15:24:10.670Z,1.700
2022-11-08T15:25:10.866Z,1.899
2022-11-08T15:26:12.868Z,1.700
2022-11-08T15:27:11.085Z,1.5
2022-11-08T15:28:10.418Z,1.700
2022-11-08T15:29:10.268Z,1.600
2022-11-08T15:31:10.676Z,1.700
2022-11-08T15:33:10.771Z,1.600
2022-11-08T15:35:11.043Z,1.700
2022-11-08T15:36:10.323Z,1.600
2022-11-08T15:38:10.926Z,1.799
2022-11-08T15:39:10.733Z,1.700
2022-11-08T15:40:11.164Z,1.600
2022-11-08T15:41:10.307Z,1.700
2022-11-08T15:43:10.842Z,1.899
2022-11-08T15:44:10.138Z,1.600
2022-11-08T15:45:11.297Z,1.700
2022-11-08T15:46:10.607Z,1.899
2022-11-08T15:50:10.972Z,1.700
2022-11-08T15:52:10.885Z,1.399
2022-11-08T15:53:10.646Z,1.600
2022-11-08T15:54:10.678Z,1.5
2022-11-08T15:55:10.822Z,1.399
2022-11-08T15:56:10.997Z,1.600
2022-11-08T15:57:11.096Z,1.799
2022-11-08T15:58:10.419Z,1.600
2022-11-08T15:59:10.735Z,1.899
2022-11-08T16:00:11.399Z,1.700
2022-11-08T16:01:11.567Z,1.600
2022-11-08T16:02:11.025Z,1.700
2022-11-08T16:04:11.021Z,1.799
2022-11-08T16:05:10.822Z,1.899
2022-11-08T16:06:11.110Z,2
2022-11-08T16:07:10.509Z,1.799
2022-11-08T16:08:14.351Z,2.099
2022-11-08T16:09:10.810Z,2
2022-11-08T16:10:11.109Z,1.799
2022-11-08T16:12:10.434Z,1.5
2022-11-08T16:13:10.703Z,1.700
2022-11-08T16:14:10.723Z,1.600
2022-11-08T16:15:10.997Z,1.700
2022-11-08T16:17:10.894Z,1.799
2022-11-08T16:19:10.318Z,2